Darstellungsparameter: Aktuell verwendete Einstellungen:
Skalierung der Graphiken ... ?
xyx+y,   Skalierungsfaktor:      Skalierung: Modus: x, Faktor: 1
Darstellungszeitraum ... ?
Vom - - bis: - -   Zeitraum: 22.05.2005 - 22.05.2005
Min/Max/Avg-Anzeige ... ?
Zeige MMA aktuell
Zeige MMA Monat
Zeige MMA alles
Zeige --A aktuell
Zeige --A Monat
Zeige --A alles
Keine MMA-Anzeige
MMA:
Average (ber die Originaldaten)
MMA-Basis: 22.05.2005 - 22.05.2005
Quicknavigation für Darstellung... ?
Tage:      1T, 2T, 3T, 5T -1T -2T -3T -5T +1T +2T +3T +5T
Wochen: 1W, 2W, 3W -1W -2W -3W +1W +2W +3W
Monate: 1M, 3M, 6M -1M -3M -6M +1M +3M +6M
Jahre:    1J, 3J, 5J, 10J -1J -3J -5J -10J +1J +3J +5J +10J
Nutze für die Darstellung ... ?
Originaldaten oder Mittelwerte auf ...
Stundenbasis Tagesbasis Wochenbasis
Monatsbasis Jahresbasis      Datenbasis: Original-Daten
Darstellen als:
Statistik (Auto) Statistik J:M      Darstellung:
Zur Graphik,    zurück zur Übersicht aller Sensoren.
 
Tabellarische Datenbersicht: ?
 
Sensor: Nr:Datum:Temp:Abs-Feuchte:Windchill:Wind:
Aussen-T/F 1 22-05-2005 00:06:03 14.4 C 10.63 g/m*3 14.4 C 0 km/h
2 22-05-2005 00:18:04 14.3 C 10.57 g/m*3 14.3 C 0 km/h
3 22-05-2005 00:30:04 14.2 C 10.62 g/m*3 14.2 C 0 km/h
4 22-05-2005 00:42:02 14.1 C 10.56 g/m*3 14.1 C 0 km/h
5 22-05-2005 00:54:03 14.1 C 10.56 g/m*3 14.1 C 0 km/h
6 22-05-2005 01:06:02 14.2 C 10.62 g/m*3 14.2 C 0 km/h
7 22-05-2005 01:18:03 14.2 C 10.62 g/m*3 14.2 C 0 km/h
8 22-05-2005 01:30:03 14.2 C 10.62 g/m*3 14.2 C 0 km/h
9 22-05-2005 01:42:03 14.2 C 10.62 g/m*3 14.2 C 0 km/h
10 22-05-2005 01:54:01 14.2 C 10.62 g/m*3 14.2 C 0 km/h
11 22-05-2005 02:06:01 14.2 C 10.75 g/m*3 14.2 C 0 km/h
12 22-05-2005 02:18:01 14.1 C 10.56 g/m*3 14.1 C 0 km/h
13 22-05-2005 02:30:01 14.1 C 10.56 g/m*3 14.1 C 0 km/h
14 22-05-2005 02:42:01 14 C 10.61 g/m*3 14 C 0 km/h
15 22-05-2005 02:55:04 14 C 10.61 g/m*3 14 C 0 km/h
16 22-05-2005 03:07:04 13.9 C 10.55 g/m*3 13.9 C 0 km/h
17 22-05-2005 03:19:04 13.8 C 10.48 g/m*3 13.8 C 0 km/h
18 22-05-2005 03:31:02 13.7 C 10.42 g/m*3 13.7 C 0 km/h
19 22-05-2005 03:43:02 13.5 C 10.29 g/m*3 13.5 C 0 km/h
20 22-05-2005 03:55:02 13.3 C 10.17 g/m*3 13.3 C 0 km/h
21 22-05-2005 04:07:02 13.2 C 10.1 g/m*3 13.2 C 0 km/h
22 22-05-2005 04:19:03 13.1 C 10.04 g/m*3 13.1 C 0 km/h
23 22-05-2005 04:31:02 13 C 10.09 g/m*3 13 C 0 km/h
24 22-05-2005 04:43:03 12.9 C 10.03 g/m*3 12.9 C 0 km/h
25 22-05-2005 04:55:02 12.9 C 10.03 g/m*3 12.9 C 0 km/h
Sensor: Nr:Datum:Temp:Abs-Feuchte:Windchill:Wind:
Aussen-T/F 26 22-05-2005 05:07:02 12.9 C 10.14 g/m*3 12.9 C 0 km/h
27 22-05-2005 05:19:02 12.8 C 9.97 g/m*3 12.8 C 0 km/h
28 22-05-2005 05:31:02 12.7 C 9.91 g/m*3 12.7 C 0 km/h
29 22-05-2005 05:43:02 12.6 C 9.96 g/m*3 12.6 C 0 km/h
30 22-05-2005 05:55:02 12.6 C 9.96 g/m*3 12.6 C 0 km/h
31 22-05-2005 06:07:02 12.9 C 10.14 g/m*3 12.9 C 0 km/h
32 22-05-2005 06:19:01 13.1 C 10.16 g/m*3 13.1 C 0 km/h
33 22-05-2005 06:31:01 13.3 C 10.28 g/m*3 13.3 C 0 km/h
34 22-05-2005 06:43:01 13.3 C 10.28 g/m*3 13.3 C 0 km/h
35 22-05-2005 06:55:02 13.4 C 10.35 g/m*3 13.4 C 0 km/h
36 22-05-2005 07:07:02 13.6 C 10.36 g/m*3 13.6 C 0 km/h
37 22-05-2005 07:19:02 13.7 C 10.42 g/m*3 13.7 C 0 km/h
38 22-05-2005 07:31:02 13.7 C 10.42 g/m*3 13.7 C 0 km/h
39 22-05-2005 07:43:02 14 C 10.37 g/m*3 14 C 0 km/h
40 22-05-2005 07:55:02 14.2 C 10.26 g/m*3 14.2 C 0 km/h
41 22-05-2005 08:07:02 14.2 C 10.26 g/m*3 14.2 C 0 km/h
42 22-05-2005 08:19:02 14.3 C 10.32 g/m*3 14.3 C 0 km/h
43 22-05-2005 08:31:02 14.7 C 10.58 g/m*3 14.7 C 0 km/h
44 22-05-2005 08:43:02 15.7 C 10.3 g/m*3 15.7 C 0 km/h
45 22-05-2005 08:55:02 16 C 9.81 g/m*3 16 C 0 km/h
46 22-05-2005 09:07:02 16 C 9.81 g/m*3 16 C 0 km/h
47 22-05-2005 09:19:01 16.4 C 9.91 g/m*3 16.4 C 0 km/h
48 22-05-2005 09:31:01 16.8 C 9.72 g/m*3 16.8 C 0 km/h
49 22-05-2005 09:43:01 16.6 C 9.61 g/m*3 16.6 C 0 km/h
50 22-05-2005 09:55:04 17.2 C 9.52 g/m*3 17.2 C 0 km/h
Sensor: Nr:Datum:Temp:Abs-Feuchte:Windchill:Wind:
Aussen-T/F 51 22-05-2005 10:07:02 17.3 C 9.43 g/m*3 17.3 C 0 km/h
52 22-05-2005 10:19:01 17.4 C 8.74 g/m*3 17.4 C 0 km/h
53 22-05-2005 10:31:01 17.3 C 8.54 g/m*3 17.3 C 0 km/h
54 22-05-2005 10:43:01 17.8 C 8.35 g/m*3 17.8 C 0 km/h
55 22-05-2005 10:55:02 18.5 C 8.54 g/m*3 18.5 C 0 km/h
56 22-05-2005 11:07:02 19 C 8.15 g/m*3 19 C 0 km/h
57 22-05-2005 11:19:01 19.3 C 8.46 g/m*3 19.3 C 0 km/h
58 22-05-2005 11:31:01 20 C 8.3 g/m*3 20 C 0 km/h
59 22-05-2005 11:43:01 20.4 C 8.14 g/m*3 20.4 C 0 km/h
60 22-05-2005 11:55:02 20 C 8.12 g/m*3 20 C 0 km/h
61 22-05-2005 12:07:02 20.2 C 8.04 g/m*3 20.2 C 0 km/h
62 22-05-2005 12:19:02 20.4 C 7.78 g/m*3 20.4 C 0 km/h
63 22-05-2005 12:31:03 20.3 C 7.56 g/m*3 20.3 C 0 km/h
64 22-05-2005 12:43:03 20.3 C 7.74 g/m*3 20.3 C 0 km/h
65 22-05-2005 12:55:02 20.4 C 8.14 g/m*3 20.4 C 0 km/h
66 22-05-2005 13:07:03 20 C 7.95 g/m*3 20 C 0 km/h
67 22-05-2005 13:19:03 20.3 C 8.09 g/m*3 20.3 C 0 km/h
68 22-05-2005 13:31:02 20.3 C 8.09 g/m*3 20.3 C 0 km/h
69 22-05-2005 13:43:02 20.8 C 8.15 g/m*3 20.8 C 0 km/h
70 22-05-2005 13:55:02 21.2 C 8.34 g/m*3 21.2 C 0 km/h
71 22-05-2005 14:07:03 21.1 C 8.48 g/m*3 21.1 C 0 km/h
72 22-05-2005 14:19:03 21.5 C 8.49 g/m*3 21.5 C 0 km/h
73 22-05-2005 14:31:02 22.2 C 8.64 g/m*3 22.2 C 0 km/h
74 22-05-2005 14:43:02 22 C 8.15 g/m*3 22 C 0 km/h
75 22-05-2005 14:55:02 22.1 C 8.2 g/m*3 22.1 C 0 km/h
Sensor: Nr:Datum:Temp:Abs-Feuchte:Windchill:Wind:
Aussen-T/F 76 22-05-2005 15:07:03 22.3 C 8.1 g/m*3 22.3 C 0 km/h
77 22-05-2005 15:19:02 21.8 C 8.06 g/m*3 21.8 C 0 km/h
78 22-05-2005 15:31:02 21.4 C 8.44 g/m*3 21.4 C 0 km/h
79 22-05-2005 15:43:02 20.5 C 8.01 g/m*3 20.5 C 0 km/h
80 22-05-2005 15:55:03 21.2 C 8.71 g/m*3 21.2 C 0 km/h
81 22-05-2005 16:07:03 20.8 C 8.87 g/m*3 20.8 C 0 km/h
82 22-05-2005 16:19:02 20.4 C 9.2 g/m*3 20.4 C 0 km/h
83 22-05-2005 16:31:02 20.5 C 9.43 g/m*3 20.5 C 0 km/h
84 22-05-2005 16:43:02 20.1 C 9.73 g/m*3 20.1 C 0 km/h
85 22-05-2005 16:55:02 20 C 9.68 g/m*3 20 C 0 km/h
86 22-05-2005 17:07:02 19.4 C 10.18 g/m*3 19.4 C 0 km/h
87 22-05-2005 17:19:02 18.7 C 10.09 g/m*3 18.7 C 0 km/h
88 22-05-2005 17:31:02 18.3 C 9.69 g/m*3 18.3 C 0 km/h
89 22-05-2005 17:43:02 18.3 C 10.01 g/m*3 18.3 C 0 km/h
90 22-05-2005 17:55:03 17.4 C 10.52 g/m*3 17.4 C 0 km/h
91 22-05-2005 18:07:02 17.5 C 10.14 g/m*3 17.5 C 0 km/h
92 22-05-2005 18:19:02 17.7 C 9.96 g/m*3 17.7 C 0 km/h
93 22-05-2005 18:31:02 18 C 9.68 g/m*3 18 C 0 km/h
94 22-05-2005 18:43:02 18 C 9.37 g/m*3 18 C 0 km/h
95 22-05-2005 18:55:03 17.8 C 9.26 g/m*3 17.8 C 0 km/h
96 22-05-2005 19:07:03 17.6 C 9.3 g/m*3 17.6 C 0 km/h
97 22-05-2005 19:19:03 17.4 C 9.34 g/m*3 17.4 C 0 km/h
98 22-05-2005 19:31:03 17.4 C 9.34 g/m*3 17.4 C 0 km/h
99 22-05-2005 19:43:03 17.6 C 9.75 g/m*3 17.6 C 0 km/h
100 22-05-2005 19:55:02 17.7 C 10.11 g/m*3 17.7 C 0 km/h
Sensor: Nr:Datum:Temp:Abs-Feuchte:Windchill:Wind:
Aussen-T/F 101 22-05-2005 20:07:02 17.4 C 9.93 g/m*3 17.4 C 0 km/h
102 22-05-2005 20:19:01 17.2 C 10.25 g/m*3 17.2 C 0 km/h
103 22-05-2005 20:31:02 17.1 C 10.04 g/m*3 17.1 C 0 km/h
104 22-05-2005 20:43:02 17 C 9.98 g/m*3 17 C 0 km/h
105 22-05-2005 20:55:02 16.9 C 10.21 g/m*3 16.9 C 0 km/h
106 22-05-2005 21:07:02 16.8 C 10.15 g/m*3 16.8 C 0 km/h
107 22-05-2005 21:19:02 16.6 C 10.17 g/m*3 16.6 C 0 km/h
108 22-05-2005 21:31:02 16.3 C 10.13 g/m*3 16.3 C 0 km/h
109 22-05-2005 21:43:02 16 C 10.08 g/m*3 16 C 0 km/h
110 22-05-2005 21:55:02 15.9 C 10.16 g/m*3 15.9 C 0 km/h
111 22-05-2005 22:07:02 15.8 C 10.1 g/m*3 15.8 C 0 km/h
112 22-05-2005 22:19:02 15.8 C 10.23 g/m*3 15.8 C 0 km/h
113 22-05-2005 22:31:02 15.7 C 10.17 g/m*3 15.7 C 0 km/h
114 22-05-2005 22:43:02 15.4 C 9.99 g/m*3 15.4 C 0 km/h
115 22-05-2005 22:55:02 15.6 C 9.84 g/m*3 15.6 C 0 km/h
116 22-05-2005 23:07:02 15.6 C 9.84 g/m*3 15.6 C 0 km/h
117 22-05-2005 23:19:02 15.5 C 9.78 g/m*3 15.5 C 0 km/h
118 22-05-2005 23:31:02 15.5 C 9.78 g/m*3 15.5 C 0 km/h
119 22-05-2005 23:43:02 15.4 C 9.72 g/m*3 15.4 C 0 km/h
120 22-05-2005 23:55:02 15.1 C 9.8 g/m*3 15.1 C 0 km/h

Legende:
   Min
   Max


Maximal/Minimal-Werte vom 22.05.2005 - 22.05.2005

Sensor Min Max Avg
Temp
(Aussen-T/F)
12.6 °C
22-05-2005  05:43:02
22.3 °C
22-05-2005  15:07:03
16.69 °C
Abs-Feuchte
(Aussen-T/F)
7.56 g/m*3
22-05-2005  12:31:03
10.75 g/m*3
22-05-2005  02:06:01
9.55 g/m*3
Windchill
(Aussen-T/F)
12.6 C
22-05-2005  05:43:02
22.3 C
22-05-2005  15:07:03
16.55 C

Die Daten stammen von einer Davis Vantage Pro 2 Wetter-Station und werden unter Linux mit der Software wview2wettercgi und aufbereitet. Alle Angaben erfolgen ohne Gewähr für ihre Vollständigkeit oder Richtigkeit.
Kontakt: Rainer Krienke krienke@uni-koblenz.de . Meine Webseiten an der Uni Koblenz oder privat.
Version: $Revision: 0.78 $